Time,TemperatureF,DewpointF,PressureIn,WindDirection,WindDirectionDegrees,WindSpeedMPH,WindSpeedGustMPH,Humidity,HourlyPrecipIn,Conditions,Clouds,dailyrainin,SoftwareType,DateUTC
2013-03-17 00:00:00,63.6,50.8,29.79,WSW,255,0.0,0.0,63,0.00,,CLR,0.00,VWS V14.01,2013-03-17 04:00:00,
2013-03-17 00:01:00,63.5,51.1,29.79,West,279,2.0,2.0,64,0.00,,CLR,0.00,VWS V14.01,2013-03-17 04:01:00,
2013-03-17 00:06:00,63.3,50.9,29.79,West,261,0.0,3.0,64,0.00,,CLR,0.00,VWS V14.01,2013-03-17 04:06:00,
2013-03-17 00:11:00,63.1,51.2,29.79,West,276,1.0,3.0,65,0.00,,CLR,0.00,VWS V14.01,2013-03-17 04:11:00,
2013-03-17 00:16:00,62.8,50.9,29.80,West,275,0.0,3.0,65,0.00,,CLR,0.00,VWS V14.01,2013-03-17 04:16:00,
2013-03-17 00:21:00,62.5,51.0,29.80,West,275,0.0,3.0,66,0.00,,CLR,0.00,VWS V14.01,2013-03-17 04:21:00,
2013-03-17 00:26:00,62.1,51.0,29.80,West,275,0.0,3.0,67,0.00,,CLR,0.00,VWS V14.01,2013-03-17 04:26:00,
2013-03-17 00:30:00,61.9,51.2,29.80,West,275,0.0,3.0,68,0.00,,OVC085,0.00,VWS V14.01,2013-03-17 04:30:00,
2013-03-17 00:31:00,61.8,50.7,29.81,West,275,0.0,0.0,67,0.00,,CLR,0.00,VWS V14.01,2013-03-17 04:31:00,
2013-03-17 00:36:00,61.1,50.9,29.81,WNW,285,0.0,1.0,69,0.00,,CLR,0.00,VWS V14.01,2013-03-17 04:36:00,
2013-03-17 00:41:00,60.6,50.8,29.81,NW,310,0.0,1.0,70,0.00,,CLR,0.00,VWS V14.01,2013-03-17 04:41:00,
2013-03-17 00:46:00,60.1,50.3,29.81,NW,310,0.0,1.0,70,0.00,,CLR,0.00,VWS V14.01,2013-03-17 04:46:00,
2013-03-17 00:51:00,59.4,50.0,29.81,NNW,338,1.0,2.0,71,0.00,,CLR,0.00,VWS V14.01,2013-03-17 04:51:00,
2013-03-17 00:56:00,58.8,50.2,29.82,North,355,0.0,2.0,73,0.00,,CLR,0.00,VWS V14.01,2013-03-17 04:56:00,
2013-03-17 01:00:00,58.6,50.3,29.82,North,355,1.0,2.0,74,0.00,,OVC085,0.00,VWS V14.01,2013-03-17 05:00:00,
2013-03-17 01:01:00,58.6,50.3,29.82,North,355,0.0,1.0,74,0.00,,CLR,0.00,VWS V14.01,2013-03-17 05:01:00,
2013-03-17 01:06:00,58.8,50.5,29.82,NNE,26,0.0,1.0,74,0.00,,CLR,0.00,VWS V14.01,2013-03-17 05:06:00,
2013-03-17 01:11:00,58.5,49.5,29.82,East,95,0.0,3.0,72,0.00,,CLR,0.00,VWS V14.01,2013-03-17 05:11:00,
2013-03-17 01:16:00,57.9,50.4,29.83,East,95,0.0,3.0,76,0.00,,CLR,0.00,VWS V14.01,2013-03-17 05:16:00,
2013-03-17 01:21:00,57.6,49.8,29.83,East,95,0.0,3.0,75,0.00,,CLR,0.00,VWS V14.01,2013-03-17 05:21:00,
2013-03-17 01:26:00,57.1,49.3,29.83,East,95,0.0,3.0,75,0.00,,CLR,0.00,VWS V14.01,2013-03-17 05:26:00,
2013-03-17 01:30:00,56.9,49.4,29.83,East,95,0.0,3.0,76,0.00,,OVC085,0.00,VWS V14.01,2013-03-17 05:30:00,
2013-03-17 01:31:00,56.7,49.2,29.83,East,95,0.0,0.0,76,0.00,,CLR,0.00,VWS V14.01,2013-03-17 05:31:00,
2013-03-17 01:36:00,56.0,48.9,29.83,East,95,0.0,0.0,77,0.00,,CLR,0.00,VWS V14.01,2013-03-17 05:36:00,
2013-03-17 01:41:00,55.5,49.1,29.83,East,95,0.0,0.0,79,0.00,,CLR,0.00,VWS V14.01,2013-03-17 05:41:00,
2013-03-17 01:46:00,55.0,48.6,29.84,East,95,0.0,0.0,79,0.00,,CLR,0.00,VWS V14.01,2013-03-17 05:46:00,
2013-03-17 01:51:00,54.8,49.4,29.84,East,95,0.0,1.0,82,0.00,,CLR,0.00,VWS V14.01,2013-03-17 05:51:00,
2013-03-17 01:56:00,54.3,47.9,29.84,East,94,0.0,1.0,79,0.00,,CLR,0.00,VWS V14.01,2013-03-17 05:56:00,
2013-03-17 02:00:00,54.0,48.6,29.84,East,94,0.0,1.0,82,0.00,,OVC085,0.00,VWS V14.01,2013-03-17 06:00:00,
2013-03-17 02:01:00,53.9,48.5,29.84,East,94,0.0,0.0,82,0.00,,CLR,0.00,VWS V14.01,2013-03-17 06:01:00,
2013-03-17 02:06:00,53.7,48.7,29.84,East,94,0.0,0.0,83,0.00,,CLR,0.00,VWS V14.01,2013-03-17 06:06:00,
2013-03-17 02:11:00,53.5,48.5,29.84,East,94,0.0,0.0,83,0.00,,CLR,0.00,VWS V14.01,2013-03-17 06:11:00,
2013-03-17 02:16:00,53.5,48.8,29.84,East,94,0.0,0.0,84,0.00,,CLR,0.00,VWS V14.01,2013-03-17 06:16:00,
2013-03-17 02:21:00,53.4,48.4,29.84,East,94,0.0,0.0,83,0.00,,CLR,0.00,VWS V14.01,2013-03-17 06:21:00,
2013-03-17 02:26:00,53.2,48.8,29.84,East,94,0.0,0.0,85,0.00,,CLR,0.00,VWS V14.01,2013-03-17 06:26:00,
2013-03-17 02:30:00,53.2,48.5,29.85,East,94,0.0,0.0,84,0.00,,OVC085,0.00,VWS V14.01,2013-03-17 06:30:00,
2013-03-17 02:31:00,53.2,48.8,29.85,East,94,0.0,0.0,85,0.00,,CLR,0.00,VWS V14.01,2013-03-17 06:31:00,
2013-03-17 02:36:00,53.0,48.0,29.85,East,94,0.0,0.0,83,0.00,,CLR,0.00,VWS V14.01,2013-03-17 06:36:00,
2013-03-17 02:41:00,52.5,47.8,29.85,East,94,0.0,0.0,84,0.00,,CLR,0.00,VWS V14.01,2013-03-17 06:41:00,
2013-03-17 02:46:00,52.2,48.2,29.85,East,94,0.0,0.0,86,0.00,,CLR,0.00,VWS V14.01,2013-03-17 06:46:00,
2013-03-17 02:51:00,51.9,47.8,29.85,East,94,0.0,0.0,86,0.00,,CLR,0.00,VWS V14.01,2013-03-17 06:51:00,
2013-03-17 02:56:00,51.7,47.7,29.85,East,94,0.0,0.0,86,0.00,,CLR,0.00,VWS V14.01,2013-03-17 06:56:00,
2013-03-17 03:00:00,51.6,47.6,29.85,East,94,0.0,0.0,86,0.00,,OVC085,0.00,VWS V14.01,2013-03-17 07:00:00,
2013-03-17 03:01:00,51.5,47.5,29.85,East,94,0.0,0.0,86,0.00,,CLR,0.00,VWS V14.01,2013-03-17 07:01:00,
2013-03-17 03:06:00,51.3,47.9,29.85,East,94,0.0,0.0,88,0.00,,CLR,0.00,VWS V14.01,2013-03-17 07:06:00,
2013-03-17 03:11:00,51.6,48.5,29.85,East,94,0.0,0.0,89,0.00,,CLR,0.00,VWS V14.01,2013-03-17 07:11:00,
2013-03-17 03:16:00,51.6,47.9,29.85,East,94,0.0,0.0,87,0.00,,CLR,0.00,VWS V14.01,2013-03-17 07:16:00,
2013-03-17 03:22:00,51.2,46.8,29.85,East,94,0.0,0.0,85,0.00,,CLR,0.00,VWS V14.01,2013-03-17 07:22:00,
2013-03-17 03:26:00,50.9,47.5,29.85,ENE,59,3.0,3.0,88,0.00,,CLR,0.00,VWS V14.01,2013-03-17 07:26:00,
2013-03-17 03:30:00,50.9,47.5,29.86,NNE,32,2.0,3.0,88,0.00,,OVC085,0.00,VWS V14.01,2013-03-17 07:30:00,
2013-03-17 04:00:00,51.8,49.6,29.87,NNE,12,1.0,8.0,92,0.00,,OVC085,0.00,VWS V14.01,2013-03-17 08:00:00,
2013-03-17 04:30:00,51.6,50.2,29.87,NE,34,3.0,7.0,95,0.00,,OVC085,0.00,VWS V14.01,2013-03-17 08:30:00,
2013-03-17 05:00:00,51.3,49.6,29.89,NE,36,0.0,7.0,94,0.00,,OVC085,0.00,VWS V14.01,2013-03-17 09:00:00,
2013-03-17 05:06:00,51.1,49.4,29.89,ENE,75,1.0,4.0,94,0.00,,CLR,0.00,VWS V14.01,2013-03-17 09:06:00,
2013-03-17 05:18:00,50.6,48.7,29.89,NNE,31,2.0,5.0,93,0.00,,CLR,0.00,VWS V14.01,2013-03-17 09:18:00,
2013-03-17 05:23:00,50.3,48.1,29.90,NE,34,2.0,5.0,92,0.00,,CLR,0.00,VWS V14.01,2013-03-17 09:23:00,
2013-03-17 05:28:00,49.9,47.7,29.90,NE,45,0.0,5.0,92,0.00,,CLR,0.00,VWS V14.01,2013-03-17 09:28:00,
2013-03-17 05:30:00,49.8,47.6,29.90,NE,51,3.0,5.0,92,0.00,,OVC085,0.00,VWS V14.01,2013-03-17 09:30:00,
2013-03-17 05:33:00,49.6,47.4,29.90,NE,34,0.0,3.0,92,0.00,,CLR,0.00,VWS V14.01,2013-03-17 09:33:00,
2013-03-17 05:38:00,49.3,47.1,29.90,NNE,27,0.0,3.0,92,0.00,,CLR,0.00,VWS V14.01,2013-03-17 09:38:00,
2013-03-17 05:43:00,49.0,46.8,29.91,North,5,1.0,3.0,92,0.00,,CLR,0.00,VWS V14.01,2013-03-17 09:43:00,
2013-03-17 05:48:00,48.9,46.7,29.91,NNE,19,0.0,3.0,92,0.00,,CLR,0.00,VWS V14.01,2013-03-17 09:48:00,
2013-03-17 05:53:00,48.7,46.5,29.91,NNE,28,1.0,3.0,92,0.00,,CLR,0.00,VWS V14.01,2013-03-17 09:53:00,
2013-03-17 05:58:00,48.7,46.5,29.92,NNE,30,0.0,3.0,92,0.00,,CLR,0.00,VWS V14.01,2013-03-17 09:58:00,
2013-03-17 06:00:00,48.6,46.4,29.92,NNE,30,1.0,3.0,92,0.00,,OVC085,0.00,VWS V14.01,2013-03-17 10:00:00,
2013-03-17 06:03:00,48.6,46.4,29.92,ENE,75,0.0,3.0,92,0.00,,,0.00,VWS V14.01,2013-03-17 10:03:00,
2013-03-17 06:08:00,48.5,46.3,29.93,NE,46,0.0,3.0,92,0.00,,,0.00,VWS V14.01,2013-03-17 10:08:00,
2013-03-17 06:13:00,48.5,46.3,29.93,NNE,30,0.0,3.0,92,0.00,,,0.00,VWS V14.01,2013-03-17 10:13:00,
2013-03-17 06:18:00,48.5,46.3,29.93,NE,39,0.0,3.0,92,0.00,,,0.00,VWS V14.01,2013-03-17 10:18:00,
2013-03-17 06:23:00,48.5,46.3,29.92,ENE,60,1.0,3.0,92,0.00,,,0.00,VWS V14.01,2013-03-17 10:23:00,
2013-03-17 06:28:00,48.4,45.9,29.92,ENE,61,2.0,6.0,91,0.00,,,0.00,VWS V14.01,2013-03-17 10:28:00,
2013-03-17 06:30:00,48.4,45.9,29.92,NNE,25,2.0,6.0,91,0.00,,OVC085,0.00,VWS V14.01,2013-03-17 10:30:00,
2013-03-17 06:33:00,48.3,45.5,29.93,North,9,1.0,3.0,90,0.00,,,0.00,VWS V14.01,2013-03-17 10:33:00,
2013-03-17 06:38:00,48.3,45.5,29.93,NNE,21,0.0,3.0,90,0.00,,,0.00,VWS V14.01,2013-03-17 10:38:00,
2013-03-17 06:43:00,48.2,45.4,29.93,NNE,19,1.0,7.0,90,0.00,,,0.00,VWS V14.01,2013-03-17 10:43:00,
2013-03-17 06:48:00,48.1,45.3,29.94,NNE,31,2.0,7.0,90,0.00,,,0.00,VWS V14.01,2013-03-17 10:48:00,
2013-03-17 06:53:00,48.1,45.3,29.93,NNE,31,3.0,7.0,90,0.00,,,0.00,VWS V14.01,2013-03-17 10:53:00,
2013-03-17 06:58:00,48.0,45.2,29.93,North,10,0.0,7.0,90,0.00,,,0.00,VWS V14.01,2013-03-17 10:58:00,
2013-03-17 07:00:00,48.0,45.2,29.93,ENE,67,2.0,7.0,90,0.00,,OVC085,0.00,VWS V14.01,2013-03-17 11:00:00,
2013-03-17 07:03:00,47.9,45.1,29.93,NE,39,1.0,5.0,90,0.00,,OVC004,0.00,VWS V14.01,2013-03-17 11:03:00,
2013-03-17 07:08:00,47.9,45.1,29.93,NNE,28,1.0,8.0,90,0.00,,OVC004,0.00,VWS V14.01,2013-03-17 11:08:00,
2013-03-17 07:13:00,47.8,45.3,29.93,NNE,33,2.0,8.0,91,0.00,,OVC004,0.00,VWS V14.01,2013-03-17 11:13:00,
2013-03-17 07:18:00,47.8,45.0,29.94,NNE,28,3.0,8.0,90,0.00,,OVC004,0.00,VWS V14.01,2013-03-17 11:18:00,
2013-03-17 07:23:00,47.7,44.9,29.95,NNE,18,2.0,8.0,90,0.00,,OVC004,0.00,VWS V14.01,2013-03-17 11:23:00,
2013-03-17 07:28:00,47.7,44.9,29.95,WNW,290,0.0,8.0,90,0.00,,OVC004,0.00,VWS V14.01,2013-03-17 11:28:00,
2013-03-17 07:30:00,47.6,45.1,29.96,North,360,1.0,8.0,91,0.00,,OVC085,0.00,VWS V14.01,2013-03-17 11:30:00,
2013-03-17 07:33:00,47.6,44.8,29.96,NNE,24,2.0,7.0,90,0.00,,OVC004,0.00,VWS V14.01,2013-03-17 11:33:00,
2013-03-17 07:38:00,47.4,44.6,29.96,NNE,15,1.0,7.0,90,0.00,,OVC004,0.00,VWS V14.01,2013-03-17 11:38:00,
2013-03-17 07:43:00,47.3,44.5,29.96,NNE,30,1.0,7.0,90,0.00,,OVC004,0.00,VWS V14.01,2013-03-17 11:43:00,
2013-03-17 07:48:00,47.1,44.6,29.97,NNE,28,2.0,7.0,91,0.00,,OVC004,0.00,VWS V14.01,2013-03-17 11:48:00,
2013-03-17 07:53:00,46.9,44.4,29.96,NE,36,4.0,7.0,91,0.00,,OVC004,0.00,VWS V14.01,2013-03-17 11:53:00,
2013-03-17 07:58:00,46.7,44.2,29.97,NNE,13,2.0,7.0,91,0.00,,OVC004,0.00,VWS V14.01,2013-03-17 11:58:00,
2013-03-17 08:00:00,46.7,44.2,29.97,North,360,3.0,7.0,91,0.00,,OVC085,0.00,VWS V14.01,2013-03-17 12:00:00,
2013-03-17 08:03:00,46.6,44.1,29.98,NNE,27,2.0,3.0,91,0.00,,OVC004,0.00,VWS V14.01,2013-03-17 12:03:00,
2013-03-17 08:08:00,46.4,43.9,29.97,NNE,25,3.0,5.0,91,0.00,,OVC004,0.00,VWS V14.01,2013-03-17 12:08:00,
2013-03-17 08:13:00,46.2,43.7,29.97,NNE,15,2.0,5.0,91,0.00,,OVC004,0.00,VWS V14.01,2013-03-17 12:13:00,
2013-03-17 08:18:00,46.0,43.5,29.97,NE,42,1.0,5.0,91,0.00,,OVC004,0.00,VWS V14.01,2013-03-17 12:18:00,
2013-03-17 08:23:00,45.8,43.3,29.97,NNE,29,0.0,5.0,91,0.00,,OVC004,0.00,VWS V14.01,2013-03-17 12:23:00,
2013-03-17 08:28:00,45.6,43.1,29.98,NNE,31,1.0,5.0,91,0.00,,OVC004,0.00,VWS V14.01,2013-03-17 12:28:00,
2013-03-17 08:30:00,45.5,43.0,29.98,NNE,31,0.0,5.0,91,0.00,,OVC085,0.00,VWS V14.01,2013-03-17 12:30:00,
2013-03-17 08:33:00,45.4,42.9,29.99,North,9,0.0,1.0,91,0.00,,OVC004,0.00,VWS V14.01,2013-03-17 12:33:00,
2013-03-17 08:38:00,45.3,42.8,29.99,NE,53,0.0,3.0,91,0.00,,OVC004,0.00,VWS V14.01,2013-03-17 12:38:00,
2013-03-17 08:43:00,45.2,42.7,30.00,NNE,25,0.0,3.0,91,0.00,,OVC004,0.00,VWS V14.01,2013-03-17 12:43:00,
2013-03-17 08:48:00,45.1,42.6,30.00,ENE,78,0.0,3.0,91,0.00,,OVC004,0.00,VWS V14.01,2013-03-17 12:48:00,
2013-03-17 08:53:00,45.0,42.8,30.00,NE,49,2.0,3.0,92,0.00,,OVC004,0.00,VWS V14.01,2013-03-17 12:53:00,
2013-03-17 08:58:00,44.9,42.7,30.01,NE,55,0.0,3.0,92,0.00,,OVC004,0.00,VWS V14.01,2013-03-17 12:58:00,
2013-03-17 09:00:00,44.9,42.7,30.01,NE,46,2.0,3.0,92,0.00,,OVC085,0.00,VWS V14.01,2013-03-17 13:00:00,
2013-03-17 09:03:00,44.8,42.6,30.01,ENE,69,1.0,2.0,92,0.00,,OVC080,0.00,VWS V14.01,2013-03-17 13:03:00,
2013-03-17 09:08:00,44.7,42.5,30.01,NNE,26,1.0,2.0,92,0.01,,OVC080,0.01,VWS V14.01,2013-03-17 13:08:00,
2013-03-17 09:13:00,44.5,42.6,30.02,NNE,18,2.0,3.0,93,0.01,,OVC080,0.01,VWS V14.01,2013-03-17 13:13:00,
2013-03-17 09:18:00,44.3,42.4,30.02,North,9,0.0,3.0,93,0.01,,OVC080,0.01,VWS V14.01,2013-03-17 13:18:00,
2013-03-17 09:23:00,44.1,42.2,30.02,NNE,22,3.0,4.0,93,0.02,,OVC080,0.02,VWS V14.01,2013-03-17 13:23:00,
2013-03-17 09:28:00,44.0,42.4,30.03,NNE,16,0.0,4.0,94,0.02,,OVC080,0.02,VWS V14.01,2013-03-17 13:28:00,
2013-03-17 09:30:00,43.9,42.3,30.03,NNE,26,2.0,4.0,94,0.02,,OVC085,0.02,VWS V14.01,2013-03-17 13:30:00,
2013-03-17 09:33:00,43.8,42.2,30.03,NNE,26,1.0,3.0,94,0.03,,OVC080,0.03,VWS V14.01,2013-03-17 13:33:00,
2013-03-17 09:38:00,43.7,42.1,30.04,NNE,22,1.0,3.0,94,0.03,,OVC080,0.03,VWS V14.01,2013-03-17 13:38:00,
2013-03-17 09:43:00,43.6,42.0,30.04,NNE,15,2.0,3.0,94,0.05,,OVC080,0.05,VWS V14.01,2013-03-17 13:43:00,
2013-03-17 09:48:00,43.5,41.9,30.04,NNE,13,2.0,3.0,94,0.07,,OVC080,0.07,VWS V14.01,2013-03-17 13:48:00,
2013-03-17 09:53:00,43.4,42.1,30.05,NE,36,0.0,3.0,95,0.09,,OVC080,0.09,VWS V14.01,2013-03-17 13:53:00,
2013-03-17 09:58:00,43.2,41.9,30.05,NNE,18,0.0,3.0,95,0.10,,OVC080,0.10,VWS V14.01,2013-03-17 13:58:00,
2013-03-17 10:00:00,43.2,41.9,30.05,NNE,18,0.0,3.0,95,0.10,,OVC085,0.10,VWS V14.01,2013-03-17 14:00:00,
2013-03-17 10:03:00,43.1,41.8,30.05,NW,317,0.0,1.0,95,0.12,,OVC060,0.12,VWS V14.01,2013-03-17 14:03:00,
2013-03-17 10:08:00,43.1,41.8,30.05,NNW,340,0.0,3.0,95,0.14,,OVC060,0.14,VWS V14.01,2013-03-17 14:08:00,
2013-03-17 10:13:00,43.1,41.8,30.05,NE,36,3.0,4.0,95,0.14,,OVC060,0.14,VWS V14.01,2013-03-17 14:13:00,
2013-03-17 10:18:00,43.0,41.7,30.05,NNE,14,0.0,4.0,95,0.15,,OVC060,0.15,VWS V14.01,2013-03-17 14:18:00,
2013-03-17 10:23:00,43.0,41.7,30.04,NE,44,0.0,4.0,95,0.15,,OVC060,0.15,VWS V14.01,2013-03-17 14:23:00,
2013-03-17 10:28:00,43.1,42.0,30.05,ESE,117,1.0,4.0,96,0.15,,OVC060,0.15,VWS V14.01,2013-03-17 14:28:00,
2013-03-17 10:30:00,43.0,41.9,30.05,NE,42,1.0,4.0,96,0.15,,OVC085,0.15,VWS V14.01,2013-03-17 14:30:00,
2013-03-17 10:33:00,43.0,41.9,30.05,NNE,13,2.0,3.0,96,0.13,,OVC060,0.15,VWS V14.01,2013-03-17 14:33:00,
2013-03-17 10:38:00,43.0,41.9,30.05,East,93,0.0,3.0,96,0.14,,OVC060,0.16,VWS V14.01,2013-03-17 14:38:00,
2013-03-17 10:43:00,43.0,41.9,30.05,NNE,29,0.0,3.0,96,0.14,,OVC060,0.16,VWS V14.01,2013-03-17 14:43:00,
2013-03-17 10:48:00,42.9,41.6,30.05,NNE,28,2.0,3.0,95,0.14,,OVC060,0.16,VWS V14.01,2013-03-17 14:48:00,
2013-03-17 10:53:00,42.7,41.4,30.05,NNE,26,1.0,4.0,95,0.14,,OVC060,0.16,VWS V14.01,2013-03-17 14:53:00,
2013-03-17 10:58:00,42.6,41.3,30.05,North,351,0.0,4.0,95,0.14,,OVC060,0.16,VWS V14.01,2013-03-17 14:58:00,
2013-03-17 11:00:00,42.6,41.3,30.05,NNE,30,2.0,4.0,95,0.14,,OVC085,0.16,VWS V14.01,2013-03-17 15:00:00,
2013-03-17 11:03:00,42.5,41.2,30.05,NE,52,0.0,2.0,95,0.06,,OVC021,0.16,VWS V14.01,2013-03-17 15:03:00,
2013-03-17 11:08:00,42.4,41.1,30.05,NNE,17,1.0,8.0,95,0.06,,OVC021,0.16,VWS V14.01,2013-03-17 15:08:00,
2013-03-17 11:13:00,42.4,41.1,30.06,NNE,28,3.0,8.0,95,0.06,,OVC021,0.16,VWS V14.01,2013-03-17 15:13:00,
2013-03-17 11:18:00,42.3,41.0,30.06,North,5,0.0,8.0,95,0.06,,OVC021,0.16,VWS V14.01,2013-03-17 15:18:00,
2013-03-17 11:23:00,42.2,40.9,30.06,NNE,29,3.0,8.0,95,0.06,,OVC021,0.16,VWS V14.01,2013-03-17 15:23:00,
2013-03-17 11:28:00,42.1,40.8,30.07,NNE,19,0.0,8.0,95,0.06,,OVC021,0.16,VWS V14.01,2013-03-17 15:28:00,
2013-03-17 11:30:00,42.1,40.8,30.07,North,9,1.0,8.0,95,0.06,,OVC085,0.16,VWS V14.01,2013-03-17 15:30:00,
2013-03-17 11:33:00,42.1,40.8,30.07,NNE,14,2.0,3.0,95,0.01,,OVC021,0.16,VWS V14.01,2013-03-17 15:33:00,
2013-03-17 11:38:00,42.0,40.7,30.07,ENE,57,0.0,13.0,95,0.01,,OVC021,0.16,VWS V14.01,2013-03-17 15:38:00,
2013-03-17 11:43:00,42.0,40.7,30.07,East,89,3.0,13.0,95,0.01,,OVC021,0.16,VWS V14.01,2013-03-17 15:43:00,
2013-03-17 11:48:00,41.9,40.6,30.08,NE,40,1.0,13.0,95,0.01,,OVC021,0.16,VWS V14.01,2013-03-17 15:48:00,
2013-03-17 11:53:00,41.9,40.6,30.08,NNE,31,4.0,13.0,95,0.01,,OVC021,0.16,VWS V14.01,2013-03-17 15:53:00,
2013-03-17 11:58:00,41.9,40.6,30.08,NE,42,0.0,13.0,95,0.01,,OVC021,0.16,VWS V14.01,2013-03-17 15:58:00,
2013-03-17 12:00:00,41.9,40.6,30.08,East,88,1.0,13.0,95,0.01,,OVC085,0.16,VWS V14.01,2013-03-17 16:00:00,
2013-03-17 12:03:00,42.0,40.7,30.08,NNE,30,2.0,4.0,95,0.00,,-RA,0.16,VWS V14.01,2013-03-17 16:03:00,
2013-03-17 12:08:00,42.1,40.8,30.08,NNE,29,0.0,4.0,95,0.00,,-RA,0.16,VWS V14.01,2013-03-17 16:08:00,
2013-03-17 12:13:00,42.2,40.9,30.08,ENE,63,3.0,4.0,95,0.00,,-RA,0.16,VWS V14.01,2013-03-17 16:13:00,
2013-03-17 12:18:00,42.2,40.9,30.08,NNE,33,5.0,7.0,95,0.00,,-RA,0.16,VWS V14.01,2013-03-17 16:18:00,
2013-03-17 12:23:00,42.1,40.8,30.08,NNE,27,1.0,7.0,95,0.00,,-RA,0.16,VWS V14.01,2013-03-17 16:23:00,
2013-03-17 12:28:00,42.1,40.8,30.08,NNE,27,2.0,7.0,95,0.00,,-RA,0.16,VWS V14.01,2013-03-17 16:28:00,
2013-03-17 12:30:00,42.1,40.8,30.08,ENE,69,1.0,7.0,95,0.00,,OVC085,0.16,VWS V14.01,2013-03-17 16:30:00,
2013-03-17 12:33:00,42.2,40.9,30.08,NNE,15,3.0,4.0,95,0.00,,-RA,0.16,VWS V14.01,2013-03-17 16:33:00,
2013-03-17 12:39:00,42.2,40.9,30.08,NE,48,1.0,4.0,95,0.00,,-RA,0.16,VWS V14.01,2013-03-17 16:39:00,
2013-03-17 12:44:00,42.2,40.9,30.08,NNW,340,2.0,5.0,95,0.00,,-RA,0.16,VWS V14.01,2013-03-17 16:44:00,
2013-03-17 12:49:00,42.1,40.8,30.08,NNE,31,1.0,5.0,95,0.00,,-RA,0.16,VWS V14.01,2013-03-17 16:49:00,
2013-03-17 12:54:00,42.0,40.7,30.08,NNE,28,2.0,5.0,95,0.00,,-RA,0.16,VWS V14.01,2013-03-17 16:54:00,
2013-03-17 12:59:00,42.0,40.7,30.08,NNE,30,2.0,8.0,95,0.00,,-RA,0.16,VWS V14.01,2013-03-17 16:59:00,
2013-03-17 13:00:00,41.9,40.6,30.08,NNE,30,2.0,8.0,95,0.00,,OVC085,0.16,VWS V14.01,2013-03-17 17:00:00,
2013-03-17 13:04:00,41.9,40.3,30.08,NE,40,3.0,5.0,94,0.00,,-RA,0.16,VWS V14.01,2013-03-17 17:04:00,
2013-03-17 13:09:00,41.8,40.2,30.08,North,355,1.0,6.0,94,0.00,,-RA,0.16,VWS V14.01,2013-03-17 17:09:00,
2013-03-17 13:14:00,41.6,40.0,30.08,East,92,0.0,6.0,94,0.00,,-RA,0.16,VWS V14.01,2013-03-17 17:14:00,
2013-03-17 13:19:00,41.6,40.0,30.09,NNE,23,1.0,6.0,94,0.00,,-RA,0.16,VWS V14.01,2013-03-17 17:19:00,
2013-03-17 13:24:00,41.6,40.0,30.08,NNE,28,0.0,6.0,94,0.00,,-RA,0.16,VWS V14.01,2013-03-17 17:24:00,
2013-03-17 13:29:00,41.5,39.9,30.08,NNE,24,1.0,11.0,94,0.00,,-RA,0.16,VWS V14.01,2013-03-17 17:29:00,
2013-03-17 13:30:00,41.5,39.9,30.08,NNE,17,2.0,11.0,94,0.00,,OVC085,0.16,VWS V14.01,2013-03-17 17:30:00,
2013-03-17 13:34:00,41.5,39.9,30.08,NNE,31,4.0,7.0,94,0.00,,-RA,0.16,VWS V14.01,2013-03-17 17:34:00,
2013-03-17 13:39:00,41.6,40.0,30.07,NE,51,2.0,7.0,94,0.00,,-RA,0.16,VWS V14.01,2013-03-17 17:39:00,
2013-03-17 13:44:00,41.8,40.2,30.07,NNW,336,1.0,7.0,94,0.00,,-RA,0.16,VWS V14.01,2013-03-17 17:44:00,
2013-03-17 13:49:00,41.7,40.1,30.07,East,79,0.0,7.0,94,0.00,,-RA,0.16,VWS V14.01,2013-03-17 17:49:00,
2013-03-17 13:54:00,41.8,40.2,30.07,ENE,67,0.0,7.0,94,0.00,,-RA,0.16,VWS V14.01,2013-03-17 17:54:00,
2013-03-17 13:59:00,41.8,40.2,30.07,ENE,63,1.0,10.0,94,0.00,,-RA,0.16,VWS V14.01,2013-03-17 17:59:00,
2013-03-17 14:00:00,41.8,40.2,30.07,East,89,0.0,10.0,94,0.00,,OVC085,0.16,VWS V14.01,2013-03-17 18:00:00,
2013-03-17 14:04:00,41.7,39.8,30.07,ENE,71,0.0,9.0,93,0.00,,OVC011,0.16,VWS V14.01,2013-03-17 18:04:00,
2013-03-17 14:09:00,41.6,40.0,30.06,ENE,69,2.0,9.0,94,0.00,,OVC011,0.16,VWS V14.01,2013-03-17 18:09:00,
2013-03-17 14:14:00,41.5,39.9,30.06,NE,39,1.0,9.0,94,0.00,,OVC011,0.16,VWS V14.01,2013-03-17 18:14:00,
2013-03-17 14:19:00,41.5,39.9,30.06,NNE,16,1.0,9.0,94,0.00,,OVC011,0.16,VWS V14.01,2013-03-17 18:19:00,
2013-03-17 14:24:00,41.5,39.9,30.06,NNE,31,1.0,9.0,94,0.00,,OVC011,0.16,VWS V14.01,2013-03-17 18:24:00,
2013-03-17 14:29:00,41.5,39.9,30.06,NE,37,1.0,9.0,94,0.00,,OVC011,0.16,VWS V14.01,2013-03-17 18:29:00,
2013-03-17 14:30:00,41.5,39.9,30.06,East,83,2.0,9.0,94,0.00,,OVC085,0.16,VWS V14.01,2013-03-17 18:30:00,
2013-03-17 14:34:00,41.4,39.8,30.06,NE,35,2.0,9.0,94,0.00,,OVC011,0.16,VWS V14.01,2013-03-17 18:34:00,
2013-03-17 14:39:00,41.4,39.8,30.05,ENE,71,4.0,9.0,94,0.00,,OVC011,0.16,VWS V14.01,2013-03-17 18:39:00,
2013-03-17 14:44:00,41.3,39.7,30.05,ENE,62,2.0,9.0,94,0.00,,OVC011,0.16,VWS V14.01,2013-03-17 18:44:00,
2013-03-17 14:49:00,41.2,39.6,30.05,NE,49,2.0,9.0,94,0.00,,OVC011,0.16,VWS V14.01,2013-03-17 18:49:00,
2013-03-17 14:54:00,41.3,39.7,30.05,ENE,62,0.0,9.0,94,0.00,,OVC011,0.16,VWS V14.01,2013-03-17 18:54:00,
2013-03-17 14:59:00,41.2,39.9,30.05,NE,36,0.0,9.0,95,0.00,,OVC011,0.16,VWS V14.01,2013-03-17 18:59:00,
2013-03-17 15:00:00,41.2,39.9,30.05,NNE,31,1.0,9.0,95,0.00,,OVC085,0.16,VWS V14.01,2013-03-17 19:00:00,
2013-03-17 15:04:00,41.1,39.5,30.05,ENE,57,5.0,10.0,94,0.00,,OVC015,0.16,VWS V14.01,2013-03-17 19:04:00,
2013-03-17 15:09:00,41.0,39.4,30.05,NNE,24,1.0,10.0,94,0.00,,OVC015,0.16,VWS V14.01,2013-03-17 19:09:00,
2013-03-17 15:14:00,41.0,39.4,30.06,East,101,1.0,10.0,94,0.00,,OVC015,0.16,VWS V14.01,2013-03-17 19:14:00,
2013-03-17 15:19:00,40.8,38.9,30.06,ENE,59,2.0,10.0,93,0.00,,OVC015,0.16,VWS V14.01,2013-03-17 19:19:00,
2013-03-17 15:24:00,40.7,39.1,30.06,North,5,1.0,10.0,94,0.00,,OVC015,0.16,VWS V14.01,2013-03-17 19:24:00,
2013-03-17 15:29:00,40.7,39.1,30.06,ENE,61,3.0,10.0,94,0.00,,OVC015,0.16,VWS V14.01,2013-03-17 19:29:00,
2013-03-17 15:30:00,40.7,39.1,30.06,NE,40,3.0,10.0,94,0.00,,OVC085,0.16,VWS V14.01,2013-03-17 19:30:00,
2013-03-17 15:34:00,40.7,39.1,30.06,ENE,77,3.0,8.0,94,0.00,,OVC015,0.16,VWS V14.01,2013-03-17 19:34:00,
2013-03-17 15:39:00,40.7,39.1,30.06,ESE,118,0.0,8.0,94,0.00,,OVC015,0.16,VWS V14.01,2013-03-17 19:39:00,
2013-03-17 15:44:00,40.8,39.2,30.06,ENE,61,0.0,8.0,94,0.00,,OVC015,0.16,VWS V14.01,2013-03-17 19:44:00,
2013-03-17 15:49:00,40.9,39.3,30.06,East,90,2.0,8.0,94,0.00,,OVC015,0.16,VWS V14.01,2013-03-17 19:49:00,
2013-03-17 15:54:00,40.9,39.0,30.06,NNE,24,0.0,8.0,93,0.00,,OVC015,0.16,VWS V14.01,2013-03-17 19:54:00,
2013-03-17 15:59:00,41.0,39.1,30.07,NE,40,1.0,8.0,93,0.00,,OVC015,0.16,VWS V14.01,2013-03-17 19:59:00,
2013-03-17 16:00:00,41.0,39.1,30.07,NE,49,1.0,8.0,93,0.00,,OVC085,0.16,VWS V14.01,2013-03-17 20:00:00,
2013-03-17 16:04:00,41.0,39.1,30.07,NE,38,0.0,3.0,93,0.00,,OVC015,0.16,VWS V14.01,2013-03-17 20:04:00,
2013-03-17 16:09:00,41.0,38.9,30.07,NNE,29,2.0,4.0,92,0.00,,OVC015,0.16,VWS V14.01,2013-03-17 20:09:00,
2013-03-17 16:14:00,40.9,38.8,30.07,ESE,109,0.0,4.0,92,0.00,,OVC015,0.16,VWS V14.01,2013-03-17 20:14:00,
2013-03-17 16:19:00,40.9,38.8,30.07,NE,36,0.0,7.0,92,0.00,,OVC015,0.16,VWS V14.01,2013-03-17 20:19:00,
2013-03-17 16:24:00,40.8,38.7,30.07,East,92,9.0,9.0,92,0.00,,OVC015,0.16,VWS V14.01,2013-03-17 20:24:00,
2013-03-17 16:29:00,40.7,38.6,30.06,NE,53,3.0,9.0,92,0.00,,OVC015,0.16,VWS V14.01,2013-03-17 20:29:00,
2013-03-17 16:30:00,40.7,38.6,30.06,NNE,27,1.0,9.0,92,0.00,,OVC044,0.16,VWS V14.01,2013-03-17 20:30:00,
2013-03-17 16:34:00,40.6,38.5,30.07,NNE,16,0.0,3.0,92,0.00,,OVC015,0.16,VWS V14.01,2013-03-17 20:34:00,
2013-03-17 16:39:00,40.7,38.8,30.07,North,355,6.0,6.0,93,0.00,,OVC015,0.16,VWS V14.01,2013-03-17 20:39:00,
2013-03-17 16:44:00,40.7,38.6,30.07,NE,34,5.0,6.0,92,0.00,,OVC015,0.16,VWS V14.01,2013-03-17 20:44:00,
2013-03-17 16:49:00,40.6,38.5,30.08,East,89,1.0,6.0,92,0.00,,OVC015,0.16,VWS V14.01,2013-03-17 20:49:00,
2013-03-17 16:54:00,40.5,38.4,30.08,NE,42,0.0,6.0,92,0.00,,OVC015,0.16,VWS V14.01,2013-03-17 20:54:00,
2013-03-17 16:59:00,40.5,38.6,30.08,NNE,29,1.0,6.0,93,0.00,,OVC015,0.16,VWS V14.01,2013-03-17 20:59:00,
2013-03-17 17:00:00,40.5,38.6,30.08,NNE,14,3.0,6.0,93,0.00,,OVC085,0.16,VWS V14.01,2013-03-17 21:00:00,
2013-03-17 17:04:00,40.5,38.6,30.08,North,11,0.0,4.0,93,0.00,,OVC013,0.16,VWS V14.01,2013-03-17 21:04:00,
2013-03-17 17:09:00,40.5,38.6,30.08,NNE,22,0.0,4.0,93,0.00,,OVC013,0.16,VWS V14.01,2013-03-17 21:09:00,
2013-03-17 17:14:00,40.5,38.6,30.08,NNE,24,1.0,4.0,93,0.00,,OVC013,0.16,VWS V14.01,2013-03-17 21:14:00,
2013-03-17 17:19:00,40.5,38.6,30.08,NE,40,2.0,4.0,93,0.00,,OVC013,0.16,VWS V14.01,2013-03-17 21:19:00,
2013-03-17 17:24:00,40.4,38.5,30.09,NE,34,0.0,4.0,93,0.00,,OVC013,0.16,VWS V14.01,2013-03-17 21:24:00,
2013-03-17 17:29:00,40.3,38.4,30.09,NNW,330,2.0,4.0,93,0.00,,OVC013,0.16,VWS V14.01,2013-03-17 21:29:00,
2013-03-17 17:30:00,40.3,38.4,30.09,NNE,28,4.0,4.0,93,0.00,,OVC085,0.16,VWS V14.01,2013-03-17 21:30:00,
2013-03-17 17:34:00,40.3,38.2,30.09,NNE,19,0.0,5.0,92,0.00,,OVC013,0.16,VWS V14.01,2013-03-17 21:34:00,
2013-03-17 17:39:00,40.2,38.1,30.10,NNE,29,3.0,5.0,92,0.00,,OVC013,0.16,VWS V14.01,2013-03-17 21:39:00,
2013-03-17 17:44:00,40.1,38.2,30.10,North,11,1.0,5.0,93,0.00,,OVC013,0.16,VWS V14.01,2013-03-17 21:44:00,
2013-03-17 17:49:00,40.0,38.1,30.10,NNE,26,1.0,5.0,93,0.00,,OVC013,0.16,VWS V14.01,2013-03-17 21:49:00,
2013-03-17 17:54:00,40.0,38.1,30.10,NNE,30,2.0,5.0,93,0.00,,OVC013,0.16,VWS V14.01,2013-03-17 21:54:00,
2013-03-17 17:59:00,40.0,38.1,30.09,NNE,28,2.0,5.0,93,0.00,,OVC013,0.16,VWS V14.01,2013-03-17 21:59:00,
2013-03-17 18:00:00,40.0,38.1,30.09,NNE,28,2.0,5.0,93,0.00,,OVC085,0.16,VWS V14.01,2013-03-17 22:00:00,
2013-03-17 18:04:00,39.9,38.0,30.09,NNE,13,2.0,7.0,93,0.00,,OVC013,0.16,VWS V14.01,2013-03-17 22:04:00,
2013-03-17 18:09:00,39.8,38.0,30.09,NE,36,5.0,7.0,93,0.00,,OVC013,0.16,VWS V14.01,2013-03-17 22:09:00,
2013-03-17 18:14:00,39.8,38.2,30.09,NE,53,0.0,7.0,94,0.00,,OVC013,0.16,VWS V14.01,2013-03-17 22:14:00,
2013-03-17 18:19:00,39.8,38.2,30.09,NNE,22,2.0,7.0,94,0.00,,OVC013,0.16,VWS V14.01,2013-03-17 22:19:00,
2013-03-17 18:24:00,39.7,38.1,30.09,NNE,28,2.0,7.0,94,0.00,,OVC013,0.16,VWS V14.01,2013-03-17 22:24:00,
2013-03-17 18:29:00,39.6,38.0,30.09,North,5,1.0,7.0,94,0.00,,OVC013,0.16,VWS V14.01,2013-03-17 22:29:00,
2013-03-17 18:30:00,39.7,38.1,30.09,North,5,1.0,7.0,94,0.00,,OVC085,0.16,VWS V14.01,2013-03-17 22:30:00,
2013-03-17 18:34:00,39.6,38.0,30.09,North,5,2.0,3.0,94,0.00,,OVC013,0.16,VWS V14.01,2013-03-17 22:34:00,
2013-03-17 18:39:00,39.5,37.9,30.09,North,5,2.0,5.0,94,0.00,,OVC013,0.16,VWS V14.01,2013-03-17 22:39:00,
2013-03-17 18:44:00,39.4,38.1,30.09,NNE,20,0.0,5.0,95,0.00,,OVC013,0.16,VWS V14.01,2013-03-17 22:44:00,
2013-03-17 18:49:00,39.2,37.9,30.10,NNE,31,7.0,7.0,95,0.00,,OVC013,0.16,VWS V14.01,2013-03-17 22:49:00,
2013-03-17 18:54:00,39.1,37.8,30.10,NNE,27,0.0,7.0,95,0.00,,OVC013,0.16,VWS V14.01,2013-03-17 22:54:00,
2013-03-17 18:59:00,39.1,37.8,30.10,North,5,0.0,7.0,95,0.00,,OVC013,0.16,VWS V14.01,2013-03-17 22:59:00,
2013-03-17 19:00:00,39.1,37.8,30.10,ESE,123,3.0,7.0,95,0.00,,OVC085,0.16,VWS V14.01,2013-03-17 23:00:00,
2013-03-17 19:04:00,39.1,37.8,30.10,NE,38,4.0,6.0,95,0.00,,OVC011,0.16,VWS V14.01,2013-03-17 23:04:00,
2013-03-17 19:09:00,39.0,37.7,30.11,ENE,57,0.0,6.0,95,0.00,,OVC011,0.16,VWS V14.01,2013-03-17 23:09:00,
2013-03-17 19:14:00,39.0,37.7,30.11,NNE,26,1.0,6.0,95,0.00,,OVC011,0.16,VWS V14.01,2013-03-17 23:14:00,
2013-03-17 19:19:00,38.9,37.6,30.11,North,5,1.0,6.0,95,0.00,,OVC011,0.16,VWS V14.01,2013-03-17 23:19:00,
2013-03-17 19:24:00,38.9,37.6,30.11,NNE,13,2.0,6.0,95,0.00,,OVC011,0.16,VWS V14.01,2013-03-17 23:24:00,
2013-03-17 19:29:00,38.9,37.6,30.11,NNE,13,1.0,6.0,95,0.00,,OVC011,0.16,VWS V14.01,2013-03-17 23:29:00,
2013-03-17 19:30:00,38.9,37.6,30.11,NNE,13,1.0,6.0,95,0.00,,OVC085,0.16,VWS V14.01,2013-03-17 23:30:00,
2013-03-17 19:34:00,38.8,37.5,30.11,NE,37,4.0,5.0,95,0.00,,OVC011,0.16,VWS V14.01,2013-03-17 23:34:00,
2013-03-17 19:39:00,38.7,37.4,30.11,East,83,3.0,7.0,95,0.00,,OVC011,0.16,VWS V14.01,2013-03-17 23:39:00,
2013-03-17 19:44:00,38.7,37.4,30.12,NNE,32,2.0,7.0,95,0.00,,OVC011,0.16,VWS V14.01,2013-03-17 23:44:00,
2013-03-17 19:49:00,38.7,37.4,30.11,NE,35,1.0,7.0,95,0.00,,OVC011,0.16,VWS V14.01,2013-03-17 23:49:00,
2013-03-17 19:54:00,38.7,37.4,30.12,ESE,116,0.0,7.0,95,0.00,,OVC011,0.16,VWS V14.01,2013-03-17 23:54:00,
2013-03-17 19:59:00,38.6,37.3,30.12,NE,42,2.0,7.0,95,0.00,,OVC011,0.16,VWS V14.01,2013-03-17 23:59:00,
2013-03-17 20:00:00,38.6,37.3,30.12,NE,42,2.0,7.0,95,0.00,,OVC085,0.16,VWS V14.01,2013-03-18 00:00:00,
2013-03-17 20:04:00,38.5,37.2,30.12,North,11,1.0,7.0,95,0.00,,OVC015,0.16,VWS V14.01,2013-03-18 00:04:00,
2013-03-17 20:09:00,38.4,37.1,30.12,NNE,16,2.0,7.0,95,0.00,,OVC015,0.16,VWS V14.01,2013-03-18 00:09:00,
2013-03-17 20:14:00,38.3,37.0,30.13,NNE,33,2.0,7.0,95,0.00,,OVC015,0.16,VWS V14.01,2013-03-18 00:14:00,
2013-03-17 20:19:00,38.3,37.0,30.13,North,350,3.0,7.0,95,0.00,,OVC015,0.16,VWS V14.01,2013-03-18 00:19:00,
2013-03-17 20:24:00,38.2,36.9,30.14,NE,36,2.0,8.0,95,0.00,,OVC015,0.16,VWS V14.01,2013-03-18 00:24:00,
2013-03-17 20:29:00,38.2,36.9,30.14,East,98,1.0,2.0,95,0.00,,OVC015,0.16,VWS V14.01,2013-03-18 00:29:00,
2013-03-17 20:30:00,38.2,36.9,30.14,ENE,76,2.0,8.0,95,0.00,,OVC085,0.16,VWS V14.01,2013-03-18 00:30:00,
2013-03-17 20:35:00,38.2,36.9,30.14,NE,42,1.0,4.0,95,0.00,,OVC015,0.16,VWS V14.01,2013-03-18 00:35:00,
2013-03-17 20:40:00,38.1,36.8,30.15,West,261,1.0,5.0,95,0.00,,OVC015,0.16,VWS V14.01,2013-03-18 00:40:00,
2013-03-17 20:45:00,38.1,36.8,30.16,NNE,17,3.0,5.0,95,0.00,,OVC015,0.16,VWS V14.01,2013-03-18 00:45:00,
2013-03-17 20:50:00,38.1,36.8,30.15,NNE,32,3.0,9.0,95,0.00,,OVC015,0.16,VWS V14.01,2013-03-18 00:50:00,
2013-03-17 20:55:00,38.0,36.4,30.16,NW,320,0.0,9.0,94,0.00,,OVC015,0.16,VWS V14.01,2013-03-18 00:55:00,
2013-03-17 21:00:00,38.0,36.4,30.16,NNE,18,2.0,2.0,94,0.00,,OVC015,0.16,VWS V14.01,2013-03-18 01:00:00,
2013-03-17 21:05:00,38.0,36.4,30.16,NNE,29,2.0,2.0,94,0.00,,OVC009,0.16,VWS V14.01,2013-03-18 01:05:00,
2013-03-17 21:10:00,38.0,36.4,30.16,NNE,32,1.0,5.0,94,0.00,,OVC009,0.16,VWS V14.01,2013-03-18 01:10:00,
2013-03-17 21:15:00,37.9,36.3,30.16,NNE,20,1.0,5.0,94,0.00,,OVC009,0.16,VWS V14.01,2013-03-18 01:15:00,
2013-03-17 21:20:00,37.9,36.3,30.16,NNE,12,0.0,5.0,94,0.00,,OVC009,0.16,VWS V14.01,2013-03-18 01:20:00,
2013-03-17 21:25:00,37.9,36.3,30.17,North,5,0.0,5.0,94,0.00,,OVC009,0.16,VWS V14.01,2013-03-18 01:25:00,
2013-03-17 21:30:00,37.9,36.6,30.17,North,5,0.0,1.0,95,0.00,,OVC009,0.16,VWS V14.01,2013-03-18 01:30:00,
2013-03-17 21:35:00,37.8,36.5,30.18,NNE,26,0.0,2.0,95,0.00,,OVC009,0.16,VWS V14.01,2013-03-18 01:35:00,
2013-03-17 21:40:00,37.7,36.4,30.17,NNE,17,2.0,2.0,95,0.00,,OVC009,0.16,VWS V14.01,2013-03-18 01:40:00,
2013-03-17 21:45:00,37.7,36.4,30.18,NNE,19,2.0,3.0,95,0.00,,OVC009,0.16,VWS V14.01,2013-03-18 01:45:00,
2013-03-17 21:50:00,37.7,36.4,30.17,NNE,19,1.0,5.0,95,0.00,,OVC009,0.16,VWS V14.01,2013-03-18 01:50:00,
2013-03-17 21:55:00,37.6,36.3,30.18,North,11,0.0,5.0,95,0.00,,OVC009,0.16,VWS V14.01,2013-03-18 01:55:00,
2013-03-17 22:00:00,37.5,36.5,30.18,NNE,15,0.0,0.0,96,0.00,,,0.16,VWS V14.01,2013-03-18 02:00:00,
2013-03-17 22:05:00,37.5,36.2,30.18,NNE,21,0.0,2.0,95,0.00,,,0.16,VWS V14.01,2013-03-18 02:05:00,
2013-03-17 22:10:00,37.5,36.5,30.18,NNE,21,1.0,3.0,96,0.00,,,0.16,VWS V14.01,2013-03-18 02:10:00,
2013-03-17 22:15:00,37.4,36.4,30.18,NNE,32,1.0,4.0,96,0.00,,,0.16,VWS V14.01,2013-03-18 02:15:00,
2013-03-17 22:20:00,37.4,36.4,30.18,NNE,32,3.0,7.0,96,0.00,,,0.16,VWS V14.01,2013-03-18 02:20:00,
2013-03-17 22:25:00,37.4,36.4,30.19,NNE,29,0.0,7.0,96,0.00,,,0.16,VWS V14.01,2013-03-18 02:25:00,
2013-03-17 22:30:00,37.4,36.4,30.19,NNE,22,1.0,2.0,96,0.00,,,0.16,VWS V14.01,2013-03-18 02:30:00,
2013-03-17 22:35:00,37.4,36.4,30.18,NNE,30,1.0,3.0,96,0.01,,,0.17,VWS V14.01,2013-03-18 02:35:00,
2013-03-17 22:40:00,37.4,36.4,30.18,NNE,33,0.0,3.0,96,0.01,,,0.17,VWS V14.01,2013-03-18 02:40:00,
2013-03-17 22:45:00,37.4,36.4,30.18,NE,39,1.0,3.0,96,0.01,,,0.17,VWS V14.01,2013-03-18 02:45:00,
2013-03-17 22:50:00,37.3,36.3,30.18,North,5,0.0,3.0,96,0.01,,,0.17,VWS V14.01,2013-03-18 02:50:00,
2013-03-17 22:55:00,37.3,36.3,30.18,East,88,1.0,4.0,96,0.01,,,0.17,VWS V14.01,2013-03-18 02:55:00,
2013-03-17 23:00:00,37.3,36.3,30.18,NNE,23,0.0,2.0,96,0.01,,,0.17,VWS V14.01,2013-03-18 03:00:00,
2013-03-17 23:05:00,37.3,36.3,30.18,NNE,30,2.0,3.0,96,0.01,,,0.17,VWS V14.01,2013-03-18 03:05:00,
2013-03-17 23:10:00,37.3,36.3,30.18,NE,35,0.0,4.0,96,0.01,,,0.17,VWS V14.01,2013-03-18 03:10:00,
2013-03-17 23:15:00,37.3,36.3,30.18,ENE,74,0.0,6.0,96,0.01,,,0.17,VWS V14.01,2013-03-18 03:15:00,
2013-03-17 23:20:00,37.3,36.3,30.19,ENE,71,0.0,6.0,96,0.01,,,0.17,VWS V14.01,2013-03-18 03:20:00,
2013-03-17 23:25:00,37.3,36.3,30.19,NE,50,0.0,6.0,96,0.02,,,0.18,VWS V14.01,2013-03-18 03:25:00,
2013-03-17 23:30:00,37.3,36.3,30.19,NNE,19,0.0,2.0,96,0.02,,,0.18,VWS V14.01,2013-03-18 03:30:00,
2013-03-17 23:35:00,37.3,36.3,30.19,NNE,15,0.0,3.0,96,0.02,,,0.18,VWS V14.01,2013-03-18 03:35:00,
2013-03-17 23:40:00,37.3,36.3,30.19,North,355,2.0,5.0,96,0.02,,,0.18,VWS V14.01,2013-03-18 03:40:00,
2013-03-17 23:45:00,37.3,36.3,30.19,East,101,1.0,5.0,96,0.02,,,0.18,VWS V14.01,2013-03-18 03:45:00,
2013-03-17 23:50:00,37.3,36.3,30.19,ENE,61,0.0,5.0,96,0.02,,,0.18,VWS V14.01,2013-03-18 03:50:00,
2013-03-17 23:55:00,37.4,36.4,30.19,ENE,61,0.0,5.0,96,0.02,,,0.18,VWS V14.01,2013-03-18 03:55:00,